createdAt,value
2023-02-26T00:01:49.372Z,-0.60
2023-02-26T00:04:18.010Z,-0.60
2023-02-26T00:06:57.480Z,-0.60
2023-02-26T00:09:28.870Z,-0.59
2023-02-26T00:11:59.140Z,-0.62
2023-02-26T00:14:28.543Z,-0.62
2023-02-26T00:17:18.686Z,-0.63
2023-02-26T00:19:47.298Z,-0.67
2023-02-26T00:22:16.313Z,-0.74
2023-02-26T00:24:44.729Z,-0.81
2023-02-26T00:27:13.251Z,-0.86
2023-02-26T00:29:42.421Z,-0.90
2023-02-26T00:32:12.055Z,-0.91
2023-02-26T00:34:41.461Z,-0.94
2023-02-26T00:37:33.122Z,-1.02
2023-02-26T00:40:17.076Z,-1.09
2023-02-26T00:42:46.242Z,-1.16
2023-02-26T00:45:15.372Z,-1.22
2023-02-26T00:47:54.455Z,-1.27
2023-02-26T00:50:25.365Z,-1.34
2023-02-26T00:53:07.582Z,-1.37
2023-02-26T00:55:36.182Z,-1.39
2023-02-26T00:58:04.533Z,-1.42
2023-02-26T01:00:32.986Z,-1.45
2023-02-26T01:03:02.156Z,-1.47
2023-02-26T01:05:31.431Z,-1.48
2023-02-26T01:08:14.321Z,-1.50
2023-02-26T01:10:43.225Z,-1.50
2023-02-26T01:13:12.830Z,-1.49
2023-02-26T01:15:46.731Z,-1.48
2023-02-26T01:18:21.393Z,-1.47
2023-02-26T01:20:55.081Z,-1.47
2023-02-26T01:23:32.200Z,-1.45
2023-02-26T01:26:10.839Z,-1.47
2023-02-26T01:28:39.529Z,-1.49
2023-02-26T01:31:19.590Z,-1.52
2023-02-26T01:33:53.990Z,-1.54
2023-02-26T01:36:28.425Z,-1.54
2023-02-26T01:39:20.435Z,-1.54
2023-02-26T01:41:55.674Z,-1.48
2023-02-26T01:44:50.104Z,-1.44
2023-02-26T01:47:24.156Z,-1.42
2023-02-26T01:49:52.812Z,-1.38
2023-02-26T01:52:48.670Z,-1.36
2023-02-26T01:55:25.657Z,-1.33
2023-02-26T01:57:58.454Z,-1.32
2023-02-26T02:00:26.925Z,-1.31
2023-02-26T02:02:55.635Z,-1.32
2023-02-26T02:05:34.214Z,-1.30
2023-02-26T02:08:02.745Z,-1.28
2023-02-26T02:10:32.489Z,-1.27
2023-02-26T02:13:00.783Z,-1.27
2023-02-26T02:15:53.763Z,-1.27
2023-02-26T02:18:33.141Z,-1.25
2023-02-26T02:21:16.299Z,-1.25
2023-02-26T02:24:15.803Z,-1.29
2023-02-26T02:27:07.867Z,-1.31
2023-02-26T02:30:03.777Z,-1.33
2023-02-26T02:32:47.455Z,-1.34
2023-02-26T02:35:24.954Z,-1.39
2023-02-26T02:38:29.556Z,-1.42
2023-02-26T02:41:29.894Z,-1.46
2023-02-26T02:44:02.692Z,-1.45
2023-02-26T02:46:36.240Z,-1.46
2023-02-26T02:49:13.717Z,-1.46
2023-02-26T02:51:54.662Z,-1.45
2023-02-26T02:54:42.143Z,-1.46
2023-02-26T02:57:23.855Z,-1.49
2023-02-26T02:59:59.375Z,-1.48
2023-02-26T03:02:36.607Z,-1.46
2023-02-26T03:05:05.419Z,-1.44
2023-02-26T03:07:40.656Z,-1.46
2023-02-26T03:10:09.856Z,-1.46
2023-02-26T03:12:38.777Z,-1.45
2023-02-26T03:15:08.336Z,-1.41
2023-02-26T03:17:51.551Z,-1.37
2023-02-26T03:21:04.927Z,-1.35
2023-02-26T03:23:40.961Z,-1.34
2023-02-26T03:26:32.326Z,-1.33
2023-02-26T03:29:16.340Z,-1.34
2023-02-26T03:31:59.602Z,-1.34
2023-02-26T03:34:35.657Z,-1.38
2023-02-26T03:37:39.120Z,-1.41
2023-02-26T03:40:14.242Z,-1.46
2023-02-26T03:43:01.182Z,-1.51
2023-02-26T03:45:33.644Z,-1.54
2023-02-26T03:48:06.264Z,-1.57
2023-02-26T03:50:40.563Z,-1.62
2023-02-26T03:53:15.043Z,-1.64
2023-02-26T03:56:18.522Z,-1.66
2023-02-26T03:58:47.262Z,-1.70
2023-02-26T04:01:22.126Z,-1.70
2023-02-26T04:04:01.167Z,-1.67
2023-02-26T04:06:31.247Z,-1.66
2023-02-26T04:09:01.191Z,-1.65
2023-02-26T04:11:31.244Z,-1.66
2023-02-26T04:14:00.079Z,-1.67
2023-02-26T04:16:28.691Z,-1.68
2023-02-26T04:18:57.365Z,-1.70
2023-02-26T04:21:25.727Z,-1.71
2023-02-26T04:23:54.202Z,-1.74
2023-02-26T04:26:23.265Z,-1.75
2023-02-26T04:28:51.966Z,-1.74
2023-02-26T04:31:20.694Z,-1.74
2023-02-26T04:33:49.298Z,-1.76
2023-02-26T04:36:17.679Z,-1.81
2023-02-26T04:38:46.119Z,-1.84
2023-02-26T04:41:14.577Z,-1.87
2023-02-26T04:43:43.043Z,-1.89
2023-02-26T04:46:12.074Z,-1.92
2023-02-26T04:48:41.116Z,-1.92
2023-02-26T04:51:09.524Z,-1.91
2023-02-26T04:53:37.945Z,-1.92
2023-02-26T04:56:07.324Z,-1.98
2023-02-26T04:58:35.861Z,-2.03
2023-02-26T05:01:04.538Z,-2.03
2023-02-26T05:03:32.940Z,-2.00
2023-02-26T05:06:02.177Z,-1.98
2023-02-26T05:08:30.570Z,-1.98
2023-02-26T05:10:58.962Z,-2.00
2023-02-26T05:13:27.802Z,-2.02
2023-02-26T05:15:56.262Z,-2.07
2023-02-26T05:18:24.979Z,-2.11
2023-02-26T05:20:56.284Z,-2.15
2023-02-26T05:23:25.380Z,-2.22
2023-02-26T05:25:57.304Z,-2.25
2023-02-26T05:28:27.756Z,-2.29
2023-02-26T05:30:58.615Z,-2.32
2023-02-26T05:33:27.621Z,-2.33
2023-02-26T05:35:57.181Z,-2.31
2023-02-26T05:38:25.540Z,-2.30
2023-02-26T05:40:58.260Z,-2.29
2023-02-26T05:43:27.212Z,-2.25
2023-02-26T05:45:55.924Z,-2.20
2023-02-26T05:48:24.776Z,-2.15
2023-02-26T05:50:53.242Z,-2.09
2023-02-26T05:53:21.660Z,-2.02
2023-02-26T05:55:50.747Z,-1.93
2023-02-26T05:58:19.141Z,-1.84
2023-02-26T06:00:47.965Z,-1.80
2023-02-26T06:03:16.430Z,-1.77
2023-02-26T06:05:45.096Z,-1.75
2023-02-26T06:08:15.905Z,-1.72
2023-02-26T06:10:44.837Z,-1.70
2023-02-26T06:13:13.249Z,-1.68
2023-02-26T06:15:42.111Z,-1.61
2023-02-26T06:18:10.955Z,-1.54
2023-02-26T06:20:39.373Z,-1.47
2023-02-26T06:23:07.996Z,-1.42
2023-02-26T06:25:36.875Z,-1.38
2023-02-26T06:28:05.283Z,-1.34
2023-02-26T06:30:33.753Z,-1.29
2023-02-26T06:33:02.404Z,-1.19
2023-02-26T06:35:30.829Z,-1.09
2023-02-26T06:37:59.493Z,-0.95
2023-02-26T06:40:27.946Z,-0.74
2023-02-26T06:42:57.343Z,-0.69
2023-02-26T06:45:25.743Z,-0.73
2023-02-26T06:47:54.261Z,-0.72
2023-02-26T06:50:23.015Z,-0.69
2023-02-26T06:52:51.488Z,-0.67
2023-02-26T06:55:22.371Z,-0.70
2023-02-26T06:57:50.905Z,-0.70
2023-02-26T07:00:19.966Z,-0.69
2023-02-26T07:02:48.748Z,-0.70
2023-02-26T07:05:18.202Z,-0.65
2023-02-26T07:07:46.628Z,-0.62
2023-02-26T07:10:15.325Z,-0.61
2023-02-26T07:12:43.949Z,-0.57
2023-02-26T07:15:12.880Z,-0.51
2023-02-26T07:17:41.321Z,-0.45
2023-02-26T07:20:12.550Z,-0.43
2023-02-26T07:22:42.261Z,-0.47
2023-02-26T07:25:12.809Z,-0.49
2023-02-26T07:27:43.789Z,-0.54
2023-02-26T07:30:13.278Z,-0.57
2023-02-26T07:32:41.754Z,-0.54
2023-02-26T07:35:11.188Z,-0.53
2023-02-26T07:37:40.237Z,-0.54
2023-02-26T07:40:09.817Z,-0.50
2023-02-26T07:42:38.797Z,-0.50
2023-02-26T07:45:08.580Z,-0.45
2023-02-26T07:47:37.064Z,-0.40
2023-02-26T07:50:06.218Z,-0.33
2023-02-26T07:52:34.636Z,-0.25
2023-02-26T07:55:03.059Z,-0.10
2023-02-26T07:57:31.668Z,0.11
2023-02-26T08:00:00.235Z,0.48
2023-02-26T08:02:29.116Z,0.68
2023-02-26T08:04:57.758Z,0.93
2023-02-26T08:07:26.629Z,1.13
2023-02-26T08:09:54.998Z,1.13
2023-02-26T08:12:23.327Z,1.02
2023-02-26T08:14:51.777Z,0.94
2023-02-26T08:17:20.226Z,0.83
2023-02-26T08:19:48.897Z,0.77
2023-02-26T08:22:17.383Z,0.74
2023-02-26T08:24:45.731Z,0.76
2023-02-26T08:27:14.101Z,0.86
2023-02-26T08:29:43.201Z,1.33
2023-02-26T08:32:11.714Z,1.97
2023-02-26T08:34:40.362Z,1.96
2023-02-26T08:37:11.861Z,2.01
2023-02-26T08:39:40.275Z,1.76
2023-02-26T08:42:10.117Z,1.42
2023-02-26T08:44:38.389Z,1.18
2023-02-26T08:47:06.629Z,0.97
2023-02-26T08:49:34.916Z,0.77
2023-02-26T08:52:03.496Z,0.65
2023-02-26T08:54:32.407Z,0.59
2023-02-26T08:57:00.756Z,0.55
2023-02-26T08:59:29.044Z,0.66
2023-02-26T09:01:57.444Z,0.86
2023-02-26T09:04:28.688Z,1.30
2023-02-26T09:06:58.379Z,2.59
2023-02-26T09:09:26.787Z,2.91
2023-02-26T09:11:55.113Z,3.05
2023-02-26T09:14:23.393Z,3.76
2023-02-26T09:16:51.915Z,4.62
2023-02-26T09:19:20.881Z,4.73
2023-02-26T09:21:49.804Z,4.58
2023-02-26T09:24:18.148Z,4.24
2023-02-26T09:26:46.897Z,3.87
2023-02-26T09:29:15.241Z,3.59
2023-02-26T09:31:44.427Z,3.37
2023-02-26T09:34:14.012Z,3.13
2023-02-26T09:36:44.153Z,2.96
2023-02-26T09:39:13.079Z,2.81
2023-02-26T09:41:50.303Z,2.73
2023-02-26T09:44:25.901Z,2.74
2023-02-26T09:46:56.920Z,2.64
2023-02-26T09:50:02.419Z,2.57
2023-02-26T09:52:30.779Z,2.61
2023-02-26T09:55:21.382Z,2.52
2023-02-26T09:57:52.768Z,2.43
2023-02-26T10:00:38.893Z,2.52
2023-02-26T10:03:44.480Z,2.78
2023-02-26T10:06:22.054Z,3.09
2023-02-26T10:08:59.303Z,3.37
2023-02-26T10:11:56.938Z,3.54
2023-02-26T10:14:48.250Z,3.71
2023-02-26T10:17:16.427Z,3.85
2023-02-26T10:19:48.369Z,4.06
2023-02-26T10:22:31.832Z,4.05
2023-02-26T10:25:07.682Z,3.99
2023-02-26T10:27:54.486Z,3.87
2023-02-26T10:30:32.866Z,3.69
2023-02-26T10:33:12.974Z,3.75
2023-02-26T10:36:33.896Z,3.85
2023-02-26T10:39:16.460Z,4.03
2023-02-26T10:41:46.972Z,4.10
2023-02-26T10:44:46.377Z,4.02
2023-02-26T10:47:47.385Z,3.81
2023-02-26T10:50:21.040Z,3.55
2023-02-26T10:52:52.485Z,3.54
2023-02-26T10:55:46.942Z,3.72
2023-02-26T10:58:20.846Z,3.85
2023-02-26T11:00:54.023Z,3.87
2023-02-26T11:03:23.215Z,4.04
2023-02-26T11:05:52.067Z,4.25
2023-02-26T11:08:31.444Z,4.28
2023-02-26T11:11:02.228Z,4.17
2023-02-26T11:13:35.111Z,3.95
2023-02-26T11:16:10.706Z,3.81
2023-02-26T11:18:49.249Z,3.76
2023-02-26T11:21:23.566Z,3.68
2023-02-26T11:24:08.579Z,3.53
2023-02-26T11:26:39.742Z,3.37
2023-02-26T11:29:25.709Z,3.23
2023-02-26T11:31:58.230Z,3.07
2023-02-26T11:34:27.853Z,3.01
2023-02-26T11:37:00.462Z,3.16
2023-02-26T11:39:34.147Z,3.49
2023-02-26T11:42:05.321Z,3.72
2023-02-26T11:44:48.942Z,3.81
2023-02-26T11:47:27.047Z,3.97
2023-02-26T11:50:05.279Z,3.94
2023-02-26T11:52:42.920Z,3.66
2023-02-26T11:55:28.051Z,3.37
2023-02-26T11:57:58.456Z,3.09
2023-02-26T12:00:38.104Z,2.82
2023-02-26T12:03:16.365Z,2.62
2023-02-26T12:05:45.758Z,2.42
2023-02-26T12:08:40.466Z,2.31
2023-02-26T12:11:43.968Z,2.26
2023-02-26T12:14:30.863Z,2.25
2023-02-26T12:17:26.962Z,2.35
2023-02-26T12:20:20.286Z,2.53
2023-02-26T12:22:55.916Z,2.80
2023-02-26T12:25:37.684Z,2.81
2023-02-26T12:28:28.488Z,2.74
2023-02-26T12:31:09.354Z,2.64
2023-02-26T12:34:03.239Z,2.54
2023-02-26T12:36:54.307Z,2.54
2023-02-26T12:39:41.908Z,2.59
2023-02-26T12:42:32.216Z,2.68
2023-02-26T12:45:20.281Z,2.82
2023-02-26T12:48:15.015Z,3.00
2023-02-26T12:50:55.773Z,3.07
2023-02-26T12:53:46.947Z,3.26
2023-02-26T12:56:29.729Z,3.54
2023-02-26T12:59:04.460Z,3.53
2023-02-26T13:01:39.886Z,3.33
2023-02-26T13:04:42.968Z,3.19
2023-02-26T13:08:04.159Z,3.05
2023-02-26T13:11:33.106Z,2.86
2023-02-26T13:14:27.660Z,2.79
2023-02-26T13:16:57.200Z,2.80
2023-02-26T13:19:51.024Z,2.86
2023-02-26T13:22:50.025Z,3.02
2023-02-26T13:25:25.374Z,3.28
2023-02-26T13:28:02.127Z,3.45
2023-02-26T13:30:36.939Z,3.52
2023-02-26T13:33:09.242Z,3.53
2023-02-26T13:35:46.354Z,3.55
2023-02-26T13:38:35.142Z,3.42
2023-02-26T13:41:21.984Z,3.29
2023-02-26T13:43:56.148Z,3.23
2023-02-26T13:46:34.145Z,3.18
2023-02-26T13:49:51.421Z,3.16
2023-02-26T13:52:29.162Z,2.96
2023-02-26T13:55:00.246Z,2.76
2023-02-26T13:57:50.702Z,2.61
2023-02-26T14:00:31.549Z,2.50
2023-02-26T14:03:32.302Z,2.40
2023-02-26T14:06:27.863Z,2.32
2023-02-26T14:09:03.521Z,2.32
2023-02-26T14:11:46.580Z,2.32
2023-02-26T14:14:38.421Z,2.32
2023-02-26T14:17:10.706Z,2.33
2023-02-26T14:19:53.309Z,2.37
2023-02-26T14:22:29.714Z,2.39
2023-02-26T14:25:17.387Z,2.40
2023-02-26T14:27:49.426Z,2.38
2023-02-26T14:30:31.484Z,2.36
2023-02-26T14:33:06.513Z,2.31
2023-02-26T14:35:52.015Z,2.29
2023-02-26T14:38:29.466Z,2.28
2023-02-26T14:41:09.453Z,2.26
2023-02-26T14:43:52.292Z,2.19
2023-02-26T14:46:22.752Z,2.10
2023-02-26T14:48:52.976Z,2.04
2023-02-26T14:51:37.024Z,2.00
2023-02-26T14:54:54.017Z,1.96
2023-02-26T14:57:40.778Z,1.96
2023-02-26T15:00:29.927Z,1.92
2023-02-26T15:03:11.654Z,1.90
2023-02-26T15:06:16.619Z,1.86
2023-02-26T15:08:56.081Z,1.82
2023-02-26T15:11:44.230Z,1.79
2023-02-26T15:15:09.660Z,1.74
2023-02-26T15:17:49.346Z,1.71
2023-02-26T15:20:33.178Z,1.69
2023-02-26T15:23:30.743Z,1.65
2023-02-26T15:26:01.446Z,1.61
2023-02-26T15:28:38.851Z,1.57
2023-02-26T15:31:13.572Z,1.51
2023-02-26T15:33:43.731Z,1.47
2023-02-26T15:36:18.655Z,1.45
2023-02-26T15:38:51.139Z,1.43
2023-02-26T15:41:20.761Z,1.46
2023-02-26T15:44:12.105Z,1.47
2023-02-26T15:46:51.200Z,1.47
2023-02-26T15:49:30.098Z,1.45
2023-02-26T15:52:02.027Z,1.42
2023-02-26T15:54:53.124Z,1.39
2023-02-26T15:57:25.386Z,1.34
2023-02-26T16:00:02.622Z,1.30
2023-02-26T16:02:39.683Z,1.25
2023-02-26T16:05:13.510Z,1.22
2023-02-26T16:07:44.344Z,1.19
2023-02-26T16:10:31.675Z,1.15
2023-02-26T16:13:03.164Z,1.12
2023-02-26T16:15:36.295Z,1.07
2023-02-26T16:18:09.231Z,1.05
2023-02-26T16:20:45.431Z,1.02
2023-02-26T16:23:25.965Z,0.97
2023-02-26T16:25:57.973Z,0.94
2023-02-26T16:28:35.721Z,0.94
2023-02-26T16:31:18.808Z,0.93
2023-02-26T16:34:05.744Z,0.93
2023-02-26T16:36:43.604Z,0.92
2023-02-26T16:39:27.936Z,0.90
2023-02-26T16:42:15.584Z,0.88
2023-02-26T16:45:08.094Z,0.83
2023-02-26T16:47:42.212Z,0.75
2023-02-26T16:50:27.639Z,0.66
2023-02-26T16:53:16.490Z,0.54
2023-02-26T16:56:17.829Z,0.41
2023-02-26T16:59:31.138Z,0.27
2023-02-26T17:02:16.749Z,0.15
2023-02-26T17:04:56.168Z,0.05
2023-02-26T17:07:32.135Z,-0.03
2023-02-26T17:10:25.095Z,-0.07
2023-02-26T17:13:15.478Z,-0.06
2023-02-26T17:15:48.170Z,-0.03
2023-02-26T17:18:20.193Z,0.02
2023-02-26T17:20:54.737Z,0.04
2023-02-26T17:23:31.598Z,0.07
2023-02-26T17:26:05.694Z,0.07
2023-02-26T17:28:41.186Z,0.06
2023-02-26T17:31:14.291Z,0.01
2023-02-26T17:33:45.496Z,-0.04
2023-02-26T17:36:18.848Z,-0.10
2023-02-26T17:38:51.013Z,-0.15
2023-02-26T17:41:23.033Z,-0.17
2023-02-26T17:43:53.608Z,-0.18
2023-02-26T17:46:25.599Z,-0.21
2023-02-26T17:48:55.685Z,-0.22
2023-02-26T17:51:25.373Z,-0.19
2023-02-26T17:54:03.502Z,-0.16
2023-02-26T17:56:35.882Z,-0.12
2023-02-26T17:59:08.013Z,-0.09
2023-02-26T18:01:39.055Z,-0.07
2023-02-26T18:04:10.218Z,-0.07
2023-02-26T18:06:40.807Z,-0.08
2023-02-26T18:09:14.030Z,-0.09
2023-02-26T18:11:45.257Z,-0.12
2023-02-26T18:14:14.898Z,-0.17
2023-02-26T18:16:48.512Z,-0.20
2023-02-26T18:19:18.978Z,-0.23
2023-02-26T18:21:48.838Z,-0.23
2023-02-26T18:24:28.866Z,-0.22
2023-02-26T18:27:00.588Z,-0.21
2023-02-26T18:29:32.080Z,-0.20
2023-02-26T18:32:04.120Z,-0.20
2023-02-26T18:34:35.420Z,-0.19
2023-02-26T18:37:07.779Z,-0.19
2023-02-26T18:39:39.830Z,-0.19
2023-02-26T18:42:22.940Z,-0.19
2023-02-26T18:44:53.662Z,-0.18
2023-02-26T18:47:24.109Z,-0.18
2023-02-26T18:49:59.409Z,-0.18
2023-02-26T18:52:28.938Z,-0.20
2023-02-26T18:54:59.660Z,-0.21
2023-02-26T18:57:33.413Z,-0.23
2023-02-26T19:00:06.386Z,-0.26
2023-02-26T19:02:37.482Z,-0.29
2023-02-26T19:05:11.538Z,-0.31
2023-02-26T19:07:42.416Z,-0.34
2023-02-26T19:10:16.255Z,-0.37
2023-02-26T19:12:51.897Z,-0.42
2023-02-26T19:15:22.149Z,-0.47
2023-02-26T19:17:53.339Z,-0.49
2023-02-26T19:20:26.973Z,-0.51
2023-02-26T19:22:57.737Z,-0.53
2023-02-26T19:25:30.391Z,-0.56
2023-02-26T19:28:01.188Z,-0.56
2023-02-26T19:30:33.522Z,-0.56
2023-02-26T19:33:06.004Z,-0.58
2023-02-26T19:35:40.739Z,-0.60
2023-02-26T19:38:12.524Z,-0.60
2023-02-26T19:40:43.254Z,-0.59
2023-02-26T19:43:16.407Z,-0.56
2023-02-26T19:45:46.736Z,-0.54
2023-02-26T19:48:17.245Z,-0.52
2023-02-26T19:50:47.739Z,-0.51
2023-02-26T19:53:21.006Z,-0.49
2023-02-26T19:55:51.826Z,-0.48
2023-02-26T19:58:22.860Z,-0.48
2023-02-26T20:00:54.844Z,-0.48
2023-02-26T20:03:25.579Z,-0.47
2023-02-26T20:05:59.489Z,-0.46
2023-02-26T20:08:31.356Z,-0.44
2023-02-26T20:11:01.166Z,-0.45
2023-02-26T20:13:35.726Z,-0.46
2023-02-26T20:16:09.131Z,-0.47
2023-02-26T20:18:38.765Z,-0.48
2023-02-26T20:21:11.245Z,-0.51
2023-02-26T20:23:43.183Z,-0.53
2023-02-26T20:26:16.607Z,-0.53
2023-02-26T20:28:48.684Z,-0.53
2023-02-26T20:31:22.743Z,-0.54
2023-02-26T20:33:59.485Z,-0.54
2023-02-26T20:36:29.744Z,-0.55
2023-02-26T20:38:59.976Z,-0.55
2023-02-26T20:41:30.709Z,-0.57
2023-02-26T20:44:00.306Z,-0.56
2023-02-26T20:46:34.500Z,-0.55
2023-02-26T20:49:04.896Z,-0.53
2023-02-26T20:51:34.524Z,-0.52
2023-02-26T20:54:03.726Z,-0.51
2023-02-26T20:56:35.092Z,-0.51
2023-02-26T20:59:06.245Z,-0.51
2023-02-26T21:01:54.574Z,-0.52
2023-02-26T21:04:25.132Z,-0.54
2023-02-26T21:06:55.205Z,-0.56
2023-02-26T21:09:24.963Z,-0.56
2023-02-26T21:11:54.853Z,-0.55
2023-02-26T21:14:27.739Z,-0.52
2023-02-26T21:17:00.442Z,-0.50
2023-02-26T21:19:32.124Z,-0.47
2023-02-26T21:22:02.249Z,-0.46
2023-02-26T21:28:04.671Z,-0.52
2023-02-26T21:30:36.572Z,-0.53
2023-02-26T21:33:05.873Z,-0.55
2023-02-26T21:35:35.131Z,-0.56
2023-02-26T21:38:05.124Z,-0.58
2023-02-26T21:40:34.211Z,-0.59
2023-02-26T21:43:05.046Z,-0.58
2023-02-26T21:45:36.523Z,-0.56
2023-02-26T21:48:06.206Z,-0.53
2023-02-26T21:50:35.740Z,-0.52
2023-02-26T21:53:05.434Z,-0.50
2023-02-26T21:55:34.201Z,-0.52
2023-02-26T21:58:03.363Z,-0.53
2023-02-26T22:00:32.223Z,-0.55
2023-02-26T22:03:00.702Z,-0.58
2023-02-26T22:05:29.850Z,-0.59
2023-02-26T22:07:58.163Z,-0.62
2023-02-26T22:10:26.671Z,-0.64
2023-02-26T22:12:55.201Z,-0.65
2023-02-26T22:15:23.810Z,-0.65
2023-02-26T22:17:52.871Z,-0.63
2023-02-26T22:20:21.330Z,-0.61
2023-02-26T22:22:49.910Z,-0.60
2023-02-26T22:25:18.431Z,-0.59
2023-02-26T22:27:46.999Z,-0.59
2023-02-26T22:30:15.734Z,-0.62
2023-02-26T22:32:44.308Z,-0.65
2023-02-26T22:35:14.190Z,-0.68
2023-02-26T22:37:44.015Z,-0.69
2023-02-26T22:40:13.799Z,-0.68
2023-02-26T22:42:43.858Z,-0.65
2023-02-26T22:45:13.900Z,-0.63
2023-02-26T22:47:42.349Z,-0.62
2023-02-26T22:50:11.687Z,-0.63
2023-02-26T22:52:40.359Z,-0.62
2023-02-26T22:55:10.568Z,-0.64
2023-02-26T22:57:39.429Z,-0.66
2023-02-26T23:00:13.110Z,-0.70
2023-02-26T23:02:42.834Z,-0.75
2023-02-26T23:05:12.117Z,-0.81
2023-02-26T23:07:41.523Z,-0.86
2023-02-26T23:10:14.630Z,-0.92
2023-02-26T23:12:43.909Z,-1.01
2023-02-26T23:15:13.609Z,-1.07
2023-02-26T23:17:42.428Z,-1.12
2023-02-26T23:20:14.153Z,-1.18
2023-02-26T23:22:48.869Z,-1.26
2023-02-26T23:25:17.560Z,-1.35
2023-02-26T23:27:46.334Z,-1.43
2023-02-26T23:30:15.389Z,-1.51
2023-02-26T23:32:44.108Z,-1.60
2023-02-26T23:35:12.531Z,-1.70
2023-02-26T23:37:40.942Z,-1.77
2023-02-26T23:40:10.656Z,-1.82
2023-02-26T23:42:39.490Z,-1.85
2023-02-26T23:45:09.053Z,-1.88
2023-02-26T23:47:38.966Z,-1.90
2023-02-26T23:50:08.072Z,-1.91
2023-02-26T23:52:37.152Z,-1.95
2023-02-26T23:55:06.674Z,-1.98
2023-02-26T23:57:35.036Z,-2.02
